C6023 KFMH-KFMH
Flight info
| Callsign | C6023 |
|---|---|
| Flight time | 1h 41m |
| Altitude | 2000 |
| Route | VFR |
| Aircraft | H60/L-VGD/C |
Departure
| Time | 2026-05-07 20:43 |
|---|---|
| Airport | Cape Cod Coast Guard Air Station (KFMH) |
Arrival
| Time | 2026-05-07 22:24 |
|---|---|
| Airport | Cape Cod Coast Guard Air Station (KFMH) |
| Time | Latitude | Longitude | Altitude | Speed | Heading |
|---|---|---|---|---|---|
| 2026-05-07 20:38 | 41.66461 | -70.52183 | 130 ft | 0 kts | 175° |
| 2026-05-07 20:39 | 41.66451 | -70.52182 | 130 ft | 3 kts | 176° |
| 2026-05-07 20:40 | 41.66435 | -70.52218 | 129 ft | 7 kts | 264° |
| 2026-05-07 20:40 | 41.66431 | -70.52280 | 130 ft | 6 kts | 264° |
| 2026-05-07 20:40 | 41.66426 | -70.52340 | 129 ft | 7 kts | 265° |
| 2026-05-07 20:40 | 41.66422 | -70.52402 | 125 ft | 7 kts | 265° |
| 2026-05-07 20:41 | 41.66418 | -70.52470 | 127 ft | 8 kts | 265° |
| 2026-05-07 20:41 | 41.66412 | -70.52546 | 126 ft | 9 kts | 265° |
| 2026-05-07 20:41 | 41.66407 | -70.52614 | 124 ft | 7 kts | 264° |
| 2026-05-07 20:41 | 41.66402 | -70.52674 | 125 ft | 7 kts | 264° |
| 2026-05-07 20:42 | 41.66398 | -70.52733 | 128 ft | 5 kts | 263° |
| 2026-05-07 20:42 | 41.66395 | -70.52753 | 137 ft | 7 kts | 261° |
| 2026-05-07 20:42 | 41.66293 | -70.52917 | 269 ft | 42 kts | 224° |
| 2026-05-07 20:42 | 41.65896 | -70.53217 | 658 ft | 80 kts | 203° |
| 2026-05-07 20:43 | 41.65247 | -70.52920 | 928 ft | 127 kts | 146° |
| 2026-05-07 20:43 | 41.64919 | -70.51814 | 865 ft | 141 kts | 87° |
| 2026-05-07 20:43 | 41.65450 | -70.50738 | 848 ft | 140 kts | 27° |
| 2026-05-07 20:43 | 41.66378 | -70.50340 | 951 ft | 141 kts | 13° |
| 2026-05-07 20:44 | 41.67324 | -70.50027 | 1003 ft | 145 kts | 10° |
| 2026-05-07 20:44 | 41.68343 | -70.49766 | 962 ft | 150 kts | 6° |
| 2026-05-07 20:44 | 41.69378 | -70.49519 | 945 ft | 152 kts | 6° |
| 2026-05-07 20:44 | 41.70403 | -70.49271 | 953 ft | 150 kts | 6° |
| 2026-05-07 20:45 | 41.71433 | -70.49040 | 963 ft | 151 kts | 7° |
| 2026-05-07 20:45 | 41.72457 | -70.48808 | 968 ft | 148 kts | 6° |
| 2026-05-07 20:45 | 41.73489 | -70.48590 | 970 ft | 148 kts | 6° |
| 2026-05-07 20:45 | 41.74511 | -70.48382 | 972 ft | 146 kts | 7° |
| 2026-05-07 20:46 | 41.75501 | -70.48124 | 970 ft | 145 kts | 14° |
| 2026-05-07 20:46 | 41.76485 | -70.47717 | 976 ft | 149 kts | 17° |
| 2026-05-07 20:46 | 41.77459 | -70.47283 | 976 ft | 148 kts | 17° |
| 2026-05-07 20:46 | 41.78436 | -70.46856 | 976 ft | 147 kts | 17° |
| 2026-05-07 20:47 | 41.79422 | -70.46422 | 973 ft | 148 kts | 17° |
| 2026-05-07 20:47 | 41.80395 | -70.45978 | 973 ft | 147 kts | 17° |
| 2026-05-07 20:47 | 41.81368 | -70.45533 | 974 ft | 148 kts | 17° |
| 2026-05-07 20:47 | 41.82345 | -70.45093 | 969 ft | 147 kts | 17° |
| 2026-05-07 20:48 | 41.83324 | -70.44649 | 969 ft | 147 kts | 17° |
| 2026-05-07 20:48 | 41.84294 | -70.44209 | 971 ft | 147 kts | 17° |
| 2026-05-07 20:48 | 41.85259 | -70.43794 | 970 ft | 150 kts | 16° |
| 2026-05-07 20:48 | 41.86240 | -70.43380 | 972 ft | 148 kts | 15° |
| 2026-05-07 20:49 | 41.87219 | -70.42973 | 969 ft | 149 kts | 16° |
| 2026-05-07 20:49 | 41.88190 | -70.42549 | 947 ft | 145 kts | 16° |
| 2026-05-07 20:49 | 41.89163 | -70.42126 | 953 ft | 146 kts | 15° |
| 2026-05-07 20:49 | 41.90126 | -70.41706 | 952 ft | 145 kts | 15° |
| 2026-05-07 20:50 | 41.91094 | -70.41283 | 954 ft | 146 kts | 15° |
| 2026-05-07 20:50 | 41.92052 | -70.40849 | 956 ft | 146 kts | 15° |
| 2026-05-07 20:50 | 41.93021 | -70.40430 | 954 ft | 145 kts | 16° |
| 2026-05-07 20:50 | 41.93966 | -70.40038 | 954 ft | 147 kts | 16° |
| 2026-05-07 20:51 | 41.94941 | -70.39625 | 951 ft | 145 kts | 16° |
| 2026-05-07 20:51 | 41.95889 | -70.39221 | 961 ft | 145 kts | 16° |
| 2026-05-07 20:51 | 41.96854 | -70.38819 | 960 ft | 145 kts | 16° |
| 2026-05-07 20:51 | 41.97820 | -70.38422 | 961 ft | 146 kts | 15° |
| 2026-05-07 20:52 | 41.98787 | -70.38026 | 961 ft | 144 kts | 15° |
| 2026-05-07 20:52 | 41.99749 | -70.37629 | 961 ft | 144 kts | 15° |
| 2026-05-07 20:52 | 42.00710 | -70.37226 | 963 ft | 146 kts | 15° |
| 2026-05-07 20:52 | 42.01673 | -70.36827 | 959 ft | 145 kts | 15° |
| 2026-05-07 20:53 | 42.02640 | -70.36427 | 959 ft | 144 kts | 15° |
| 2026-05-07 20:53 | 42.03605 | -70.36028 | 961 ft | 145 kts | 15° |
| 2026-05-07 20:53 | 42.04566 | -70.35620 | 962 ft | 144 kts | 15° |
| 2026-05-07 20:53 | 42.05451 | -70.35025 | 951 ft | 145 kts | 40° |
| 2026-05-07 20:54 | 42.05881 | -70.33816 | 953 ft | 147 kts | 83° |
| 2026-05-07 20:54 | 42.05584 | -70.32545 | 961 ft | 145 kts | 128° |
| 2026-05-07 20:54 | 42.04719 | -70.31968 | 965 ft | 141 kts | 178° |
| 2026-05-07 20:54 | 42.03824 | -70.32426 | 994 ft | 142 kts | 212° |
| 2026-05-07 20:55 | 42.02976 | -70.33072 | 989 ft | 136 kts | 213° |
| 2026-05-07 20:55 | 42.02231 | -70.33721 | 941 ft | 118 kts | 227° |
| 2026-05-07 20:55 | 42.02090 | -70.34740 | 748 ft | 118 kts | 279° |
| 2026-05-07 20:55 | 42.02257 | -70.35771 | 826 ft | 108 kts | 285° |
| 2026-05-07 20:56 | 42.02489 | -70.36680 | 874 ft | 100 kts | 291° |
| 2026-05-07 20:56 | 42.02705 | -70.37561 | 829 ft | 100 kts | 288° |
| 2026-05-07 20:56 | 42.03042 | -70.38344 | 886 ft | 98 kts | 320° |
| 2026-05-07 20:56 | 42.03677 | -70.38476 | 918 ft | 99 kts | 15° |
| 2026-05-07 20:57 | 42.04322 | -70.38169 | 996 ft | 101 kts | 17° |
| 2026-05-07 20:57 | 42.04976 | -70.37869 | 993 ft | 100 kts | 16° |
| 2026-05-07 20:57 | 42.05626 | -70.37583 | 982 ft | 99 kts | 16° |
| 2026-05-07 20:57 | 42.06285 | -70.37298 | 975 ft | 98 kts | 16° |
| 2026-05-07 20:58 | 42.06940 | -70.37013 | 975 ft | 99 kts | 16° |
| 2026-05-07 20:58 | 42.07553 | -70.36477 | 943 ft | 123 kts | 55° |
| 2026-05-07 20:58 | 42.07563 | -70.35292 | 983 ft | 134 kts | 109° |
| 2026-05-07 20:58 | 42.07288 | -70.34194 | 975 ft | 113 kts | 110° |
| 2026-05-07 20:59 | 42.07065 | -70.33269 | 990 ft | 99 kts | 110° |
| 2026-05-07 20:59 | 42.06848 | -70.32360 | 982 ft | 102 kts | 110° |
| 2026-05-07 20:59 | 42.06625 | -70.31445 | 979 ft | 103 kts | 110° |
| 2026-05-07 20:59 | 42.06396 | -70.30531 | 983 ft | 105 kts | 113° |
| 2026-05-07 21:00 | 42.05745 | -70.29979 | 970 ft | 125 kts | 176° |
| 2026-05-07 21:00 | 42.05170 | -70.30169 | 998 ft | 124 kts | 203° |
| 2026-05-07 21:00 | 42.04222 | -70.30605 | 990 ft | 97 kts | 202° |
| 2026-05-07 21:00 | 42.03596 | -70.30874 | 994 ft | 97 kts | 202° |
| 2026-05-07 21:01 | 42.02961 | -70.31129 | 989 ft | 96 kts | 201° |
| 2026-05-07 21:01 | 42.02318 | -70.31386 | 977 ft | 96 kts | 201° |
| 2026-05-07 21:01 | 42.01885 | -70.31559 | 976 ft | 95 kts | 201° |
| 2026-05-07 21:01 | 42.01247 | -70.31817 | 975 ft | 95 kts | 201° |
| 2026-05-07 21:02 | 42.00608 | -70.32081 | 976 ft | 95 kts | 201° |
| 2026-05-07 21:02 | 41.99978 | -70.32358 | 971 ft | 93 kts | 205° |
| 2026-05-07 21:02 | 41.99652 | -70.33042 | 982 ft | 90 kts | 259° |
| 2026-05-07 21:02 | 41.99669 | -70.33835 | 975 ft | 82 kts | 279° |
| 2026-05-07 21:03 | 41.99844 | -70.34649 | 965 ft | 96 kts | 285° |
| 2026-05-07 21:03 | 42.00009 | -70.35481 | 971 ft | 93 kts | 285° |
| 2026-05-07 21:03 | 42.00176 | -70.36308 | 971 ft | 92 kts | 285° |
| 2026-05-07 21:03 | 42.00348 | -70.37133 | 969 ft | 92 kts | 285° |
| 2026-05-07 21:04 | 42.00516 | -70.37965 | 970 ft | 91 kts | 285° |
| 2026-05-07 21:04 | 42.00680 | -70.38794 | 969 ft | 91 kts | 285° |
| 2026-05-07 21:04 | 42.00850 | -70.39613 | 968 ft | 91 kts | 285° |
| 2026-05-07 21:04 | 42.01022 | -70.40444 | 969 ft | 92 kts | 285° |
| 2026-05-07 21:05 | 42.01288 | -70.41288 | 958 ft | 107 kts | 303° |
| 2026-05-07 21:05 | 42.01920 | -70.41882 | 946 ft | 123 kts | 342° |
| 2026-05-07 21:05 | 42.02778 | -70.41589 | 966 ft | 135 kts | 28° |
| 2026-05-07 21:05 | 42.03530 | -70.41048 | 968 ft | 112 kts | 19° |
| 2026-05-07 21:06 | 42.04210 | -70.40750 | 977 ft | 96 kts | 15° |
| 2026-05-07 21:06 | 42.04860 | -70.40468 | 973 ft | 100 kts | 15° |
| 2026-05-07 21:06 | 42.05512 | -70.40178 | 971 ft | 99 kts | 15° |
| 2026-05-07 21:06 | 42.06158 | -70.39887 | 971 ft | 98 kts | 15° |
| 2026-05-07 21:07 | 42.06811 | -70.39601 | 968 ft | 98 kts | 15° |
| 2026-05-07 21:07 | 42.07468 | -70.39313 | 969 ft | 100 kts | 15° |
| 2026-05-07 21:07 | 42.08121 | -70.39031 | 967 ft | 98 kts | 15° |
| 2026-05-07 21:07 | 42.08776 | -70.38750 | 968 ft | 99 kts | 15° |
| 2026-05-07 21:08 | 42.09427 | -70.38467 | 970 ft | 99 kts | 15° |
| 2026-05-07 21:08 | 42.09882 | -70.37838 | 951 ft | 106 kts | 75° |
| 2026-05-07 21:08 | 42.09736 | -70.36897 | 976 ft | 98 kts | 109° |
| 2026-05-07 21:08 | 42.09484 | -70.36003 | 974 ft | 103 kts | 111° |
| 2026-05-07 21:09 | 42.09237 | -70.35103 | 973 ft | 103 kts | 111° |
| 2026-05-07 21:09 | 42.09022 | -70.34173 | 974 ft | 100 kts | 108° |
| 2026-05-07 21:09 | 42.08811 | -70.33252 | 977 ft | 105 kts | 108° |
| 2026-05-07 21:09 | 42.08595 | -70.32331 | 977 ft | 102 kts | 108° |
| 2026-05-07 21:10 | 42.08383 | -70.31415 | 977 ft | 102 kts | 108° |
| 2026-05-07 21:10 | 42.08170 | -70.30494 | 984 ft | 104 kts | 108° |
| 2026-05-07 21:10 | 42.07951 | -70.29566 | 982 ft | 103 kts | 108° |
| 2026-05-07 21:10 | 42.07737 | -70.28646 | 985 ft | 102 kts | 108° |
| 2026-05-07 21:11 | 42.07526 | -70.27727 | 983 ft | 104 kts | 108° |
| 2026-05-07 21:11 | 42.07061 | -70.27085 | 982 ft | 100 kts | 162° |
| 2026-05-07 21:11 | 42.05776 | -70.27377 | 997 ft | 95 kts | 200° |
| 2026-05-07 21:12 | 42.05130 | -70.27637 | 985 ft | 97 kts | 200° |
| 2026-05-07 21:12 | 42.04487 | -70.27895 | 985 ft | 94 kts | 200° |
| 2026-05-07 21:12 | 42.03845 | -70.28156 | 984 ft | 98 kts | 200° |
| 2026-05-07 21:12 | 42.03204 | -70.28416 | 984 ft | 95 kts | 200° |
| 2026-05-07 21:13 | 42.02565 | -70.28669 | 983 ft | 94 kts | 200° |
| 2026-05-07 21:13 | 42.01923 | -70.28934 | 981 ft | 97 kts | 200° |
| 2026-05-07 21:13 | 42.01281 | -70.29197 | 983 ft | 96 kts | 200° |
| 2026-05-07 21:13 | 42.00641 | -70.29460 | 984 ft | 96 kts | 200° |
| 2026-05-07 21:14 | 42.00001 | -70.29729 | 984 ft | 98 kts | 200° |
| 2026-05-07 21:14 | 41.99359 | -70.30001 | 986 ft | 97 kts | 200° |
| 2026-05-07 21:14 | 41.98721 | -70.30269 | 984 ft | 96 kts | 200° |
| 2026-05-07 21:14 | 41.98081 | -70.30539 | 985 ft | 96 kts | 200° |
| 2026-05-07 21:15 | 41.97443 | -70.30881 | 962 ft | 106 kts | 218° |
| 2026-05-07 21:15 | 41.97194 | -70.31842 | 964 ft | 119 kts | 275° |
| 2026-05-07 21:15 | 41.97425 | -70.32869 | 979 ft | 106 kts | 287° |
| 2026-05-07 21:15 | 41.97627 | -70.33739 | 981 ft | 91 kts | 287° |
| 2026-05-07 21:16 | 41.97816 | -70.34559 | 975 ft | 91 kts | 287° |
| 2026-05-07 21:16 | 41.98007 | -70.35385 | 975 ft | 93 kts | 287° |
| 2026-05-07 21:16 | 41.98199 | -70.36213 | 971 ft | 93 kts | 287° |
| 2026-05-07 21:16 | 41.98389 | -70.37033 | 971 ft | 92 kts | 287° |
| 2026-05-07 21:17 | 41.98581 | -70.37854 | 971 ft | 91 kts | 287° |
| 2026-05-07 21:17 | 41.98776 | -70.38667 | 962 ft | 96 kts | 287° |
| 2026-05-07 21:17 | 41.98968 | -70.39497 | 969 ft | 92 kts | 287° |
| 2026-05-07 21:17 | 41.99161 | -70.40317 | 971 ft | 91 kts | 287° |
| 2026-05-07 21:18 | 41.99351 | -70.41142 | 967 ft | 93 kts | 287° |
| 2026-05-07 21:18 | 41.99547 | -70.41972 | 969 ft | 94 kts | 287° |
| 2026-05-07 21:18 | 41.99747 | -70.42796 | 971 ft | 90 kts | 287° |
| 2026-05-07 21:18 | 42.00122 | -70.43425 | 970 ft | 94 kts | 316° |
| 2026-05-07 21:19 | 42.00721 | -70.44128 | 955 ft | 131 kts | 322° |
| 2026-05-07 21:19 | 42.01620 | -70.44657 | 938 ft | 154 kts | 351° |
| 2026-05-07 21:19 | 42.02682 | -70.44247 | 975 ft | 154 kts | 23° |
| 2026-05-07 21:19 | 42.03548 | -70.43753 | 978 ft | 120 kts | 18° |
| 2026-05-07 21:20 | 42.04268 | -70.43395 | 977 ft | 102 kts | 18° |
| 2026-05-07 21:20 | 42.04907 | -70.43073 | 976 ft | 100 kts | 18° |
| 2026-05-07 21:20 | 42.05546 | -70.42751 | 976 ft | 99 kts | 18° |
| 2026-05-07 21:20 | 42.06185 | -70.42427 | 974 ft | 99 kts | 18° |
| 2026-05-07 21:21 | 42.06812 | -70.42104 | 973 ft | 95 kts | 18° |
| 2026-05-07 21:21 | 42.07457 | -70.41782 | 971 ft | 99 kts | 18° |
| 2026-05-07 21:21 | 42.08097 | -70.41461 | 969 ft | 100 kts | 18° |
| 2026-05-07 21:21 | 42.08741 | -70.41141 | 970 ft | 98 kts | 18° |
| 2026-05-07 21:22 | 42.09446 | -70.40835 | 942 ft | 121 kts | 16° |
| 2026-05-07 21:22 | 42.10254 | -70.40471 | 827 ft | 121 kts | 19° |
| 2026-05-07 21:22 | 42.11047 | -70.40088 | 658 ft | 121 kts | 21° |
| 2026-05-07 21:22 | 42.11817 | -70.39708 | 538 ft | 115 kts | 32° |
| 2026-05-07 21:23 | 42.12003 | -70.38786 | 471 ft | 108 kts | 112° |
| 2026-05-07 21:23 | 42.11809 | -70.37872 | 543 ft | 100 kts | 106° |
| 2026-05-07 21:23 | 42.11611 | -70.36974 | 573 ft | 101 kts | 108° |
| 2026-05-07 21:23 | 42.11411 | -70.36041 | 583 ft | 106 kts | 109° |
| 2026-05-07 21:24 | 42.11181 | -70.35077 | 598 ft | 108 kts | 111° |
| 2026-05-07 21:24 | 42.10951 | -70.34121 | 569 ft | 105 kts | 111° |
| 2026-05-07 21:24 | 42.10729 | -70.33209 | 547 ft | 100 kts | 111° |
| 2026-05-07 21:24 | 42.10527 | -70.32335 | 612 ft | 95 kts | 112° |
| 2026-05-07 21:25 | 42.10337 | -70.31505 | 603 ft | 91 kts | 111° |
| 2026-05-07 21:25 | 42.10143 | -70.30724 | 540 ft | 85 kts | 113° |
| 2026-05-07 21:25 | 42.09982 | -70.29965 | 530 ft | 83 kts | 111° |
| 2026-05-07 21:25 | 42.09795 | -70.29218 | 495 ft | 86 kts | 115° |
| 2026-05-07 21:26 | 42.09605 | -70.28461 | 497 ft | 90 kts | 113° |
| 2026-05-07 21:26 | 42.09419 | -70.27691 | 501 ft | 86 kts | 113° |
| 2026-05-07 21:26 | 42.09235 | -70.26922 | 498 ft | 87 kts | 113° |
| 2026-05-07 21:26 | 42.09052 | -70.26153 | 493 ft | 86 kts | 113° |
| 2026-05-07 21:27 | 42.08717 | -70.25604 | 492 ft | 76 kts | 158° |
| 2026-05-07 21:27 | 42.08205 | -70.25701 | 501 ft | 87 kts | 196° |
| 2026-05-07 21:27 | 42.07632 | -70.25933 | 500 ft | 79 kts | 198° |
| 2026-05-07 21:27 | 42.07095 | -70.26150 | 494 ft | 82 kts | 198° |
| 2026-05-07 21:28 | 42.06548 | -70.26372 | 495 ft | 82 kts | 198° |
| 2026-05-07 21:28 | 42.06001 | -70.26592 | 496 ft | 82 kts | 198° |
| 2026-05-07 21:28 | 42.05452 | -70.26817 | 492 ft | 83 kts | 198° |
| 2026-05-07 21:28 | 42.04906 | -70.27046 | 492 ft | 83 kts | 198° |
| 2026-05-07 21:29 | 42.04361 | -70.27273 | 497 ft | 82 kts | 198° |
| 2026-05-07 21:29 | 42.03821 | -70.27501 | 497 ft | 83 kts | 198° |
| 2026-05-07 21:29 | 42.03282 | -70.27728 | 488 ft | 80 kts | 198° |
| 2026-05-07 21:29 | 42.02740 | -70.27957 | 496 ft | 80 kts | 198° |
| 2026-05-07 21:30 | 42.02201 | -70.28177 | 495 ft | 79 kts | 198° |
| 2026-05-07 21:30 | 42.01662 | -70.28401 | 496 ft | 82 kts | 198° |
| 2026-05-07 21:30 | 42.01114 | -70.28624 | 497 ft | 81 kts | 198° |
| 2026-05-07 21:30 | 42.00567 | -70.28843 | 495 ft | 81 kts | 198° |
| 2026-05-07 21:31 | 42.00032 | -70.29060 | 496 ft | 82 kts | 198° |
| 2026-05-07 21:31 | 41.99488 | -70.29288 | 497 ft | 82 kts | 198° |
| 2026-05-07 21:31 | 41.98942 | -70.29515 | 498 ft | 83 kts | 198° |
| 2026-05-07 21:31 | 41.98398 | -70.29741 | 498 ft | 81 kts | 198° |
| 2026-05-07 21:32 | 41.97855 | -70.29967 | 496 ft | 82 kts | 198° |
| 2026-05-07 21:32 | 41.97321 | -70.30209 | 494 ft | 76 kts | 205° |
| 2026-05-07 21:32 | 41.97070 | -70.30782 | 491 ft | 78 kts | 263° |
| 2026-05-07 21:32 | 41.97266 | -70.31492 | 484 ft | 96 kts | 290° |
| 2026-05-07 21:33 | 41.97464 | -70.32323 | 486 ft | 84 kts | 287° |
| 2026-05-07 21:33 | 41.97653 | -70.33064 | 488 ft | 84 kts | 287° |
| 2026-05-07 21:33 | 41.97839 | -70.33827 | 482 ft | 85 kts | 287° |
| 2026-05-07 21:33 | 41.98009 | -70.34597 | 487 ft | 86 kts | 287° |
| 2026-05-07 21:34 | 41.98182 | -70.35369 | 486 ft | 86 kts | 287° |
| 2026-05-07 21:34 | 41.98355 | -70.36137 | 484 ft | 87 kts | 287° |
| 2026-05-07 21:34 | 41.98528 | -70.36908 | 485 ft | 87 kts | 287° |
| 2026-05-07 21:34 | 41.98700 | -70.37686 | 483 ft | 87 kts | 287° |
| 2026-05-07 21:35 | 41.98871 | -70.38463 | 484 ft | 87 kts | 287° |
| 2026-05-07 21:35 | 41.99044 | -70.39241 | 483 ft | 87 kts | 287° |
| 2026-05-07 21:35 | 41.99219 | -70.40019 | 484 ft | 87 kts | 287° |
| 2026-05-07 21:35 | 41.99394 | -70.40800 | 479 ft | 87 kts | 287° |
| 2026-05-07 21:36 | 41.99574 | -70.41579 | 480 ft | 87 kts | 287° |
| 2026-05-07 21:36 | 41.99750 | -70.42360 | 483 ft | 87 kts | 287° |
| 2026-05-07 21:36 | 41.99926 | -70.43144 | 478 ft | 88 kts | 287° |
| 2026-05-07 21:36 | 42.00108 | -70.43929 | 481 ft | 89 kts | 287° |
| 2026-05-07 21:37 | 42.00349 | -70.44648 | 472 ft | 81 kts | 309° |
| 2026-05-07 21:37 | 42.00876 | -70.44762 | 476 ft | 78 kts | 14° |
| 2026-05-07 21:37 | 42.01457 | -70.44525 | 481 ft | 89 kts | 17° |
| 2026-05-07 21:37 | 42.02049 | -70.44305 | 484 ft | 88 kts | 17° |
| 2026-05-07 21:38 | 42.02639 | -70.44086 | 478 ft | 89 kts | 17° |
| 2026-05-07 21:38 | 42.03247 | -70.43861 | 482 ft | 89 kts | 17° |
| 2026-05-07 21:38 | 42.03847 | -70.43641 | 481 ft | 89 kts | 17° |
| 2026-05-07 21:38 | 42.04445 | -70.43395 | 480 ft | 86 kts | 20° |
| 2026-05-07 21:39 | 42.05030 | -70.43142 | 481 ft | 88 kts | 20° |
| 2026-05-07 21:39 | 42.05611 | -70.42891 | 481 ft | 90 kts | 21° |
| 2026-05-07 21:39 | 42.06209 | -70.42631 | 481 ft | 91 kts | 21° |
| 2026-05-07 21:39 | 42.06802 | -70.42370 | 482 ft | 89 kts | 21° |
| 2026-05-07 21:40 | 42.07403 | -70.42107 | 481 ft | 89 kts | 21° |
| 2026-05-07 21:40 | 42.07987 | -70.41847 | 481 ft | 90 kts | 21° |
| 2026-05-07 21:40 | 42.08591 | -70.41583 | 477 ft | 91 kts | 21° |
| 2026-05-07 21:40 | 42.09188 | -70.41326 | 482 ft | 92 kts | 21° |
| 2026-05-07 21:41 | 42.09658 | -70.40920 | 470 ft | 78 kts | 57° |
| 2026-05-07 21:41 | 42.09749 | -70.40251 | 484 ft | 79 kts | 91° |
| 2026-05-07 21:41 | 42.09775 | -70.39431 | 489 ft | 84 kts | 90° |
| 2026-05-07 21:41 | 42.09715 | -70.38601 | 489 ft | 92 kts | 106° |
| 2026-05-07 21:42 | 42.09515 | -70.37850 | 488 ft | 89 kts | 116° |
| 2026-05-07 21:42 | 42.09289 | -70.37111 | 487 ft | 82 kts | 114° |
| 2026-05-07 21:42 | 42.09109 | -70.36352 | 485 ft | 83 kts | 111° |
| 2026-05-07 21:42 | 42.08921 | -70.35591 | 485 ft | 87 kts | 111° |
| 2026-05-07 21:43 | 42.08726 | -70.34825 | 485 ft | 87 kts | 111° |
| 2026-05-07 21:43 | 42.08537 | -70.34055 | 486 ft | 88 kts | 111° |
| 2026-05-07 21:43 | 42.08345 | -70.33281 | 491 ft | 88 kts | 111° |
| 2026-05-07 21:43 | 42.08158 | -70.32496 | 488 ft | 89 kts | 111° |
| 2026-05-07 21:44 | 42.07965 | -70.31704 | 487 ft | 88 kts | 111° |
| 2026-05-07 21:44 | 42.07786 | -70.30927 | 490 ft | 86 kts | 111° |
| 2026-05-07 21:44 | 42.07617 | -70.30152 | 498 ft | 86 kts | 111° |
| 2026-05-07 21:44 | 42.07445 | -70.29368 | 498 ft | 89 kts | 111° |
| 2026-05-07 21:45 | 42.07221 | -70.28594 | 479 ft | 94 kts | 129° |
| 2026-05-07 21:45 | 42.06583 | -70.28354 | 488 ft | 104 kts | 190° |
| 2026-05-07 21:45 | 42.05939 | -70.28626 | 502 ft | 87 kts | 198° |
| 2026-05-07 21:45 | 42.05392 | -70.28851 | 496 ft | 84 kts | 198° |
| 2026-05-07 21:46 | 42.04844 | -70.29074 | 498 ft | 82 kts | 198° |
| 2026-05-07 21:46 | 42.04301 | -70.29297 | 494 ft | 82 kts | 198° |
| 2026-05-07 21:46 | 42.03759 | -70.29523 | 496 ft | 82 kts | 198° |
| 2026-05-07 21:46 | 42.03224 | -70.29744 | 492 ft | 81 kts | 198° |
| 2026-05-07 21:47 | 42.02682 | -70.29961 | 494 ft | 81 kts | 198° |
| 2026-05-07 21:47 | 42.02137 | -70.30184 | 497 ft | 81 kts | 198° |
| 2026-05-07 21:47 | 42.01587 | -70.30402 | 497 ft | 81 kts | 198° |
| 2026-05-07 21:47 | 42.01038 | -70.30619 | 496 ft | 82 kts | 198° |
| 2026-05-07 21:48 | 42.00493 | -70.30841 | 493 ft | 81 kts | 198° |
| 2026-05-07 21:48 | 41.99943 | -70.31073 | 434 ft | 80 kts | 199° |
| 2026-05-07 21:48 | 41.99561 | -70.30956 | 380 ft | 59 kts | 139° |
| 2026-05-07 21:48 | 41.99626 | -70.30371 | 307 ft | 64 kts | 68° |
| 2026-05-07 21:49 | 41.99974 | -70.30303 | 143 ft | 55 kts | 358° |
| 2026-05-07 21:49 | 42.00065 | -70.30737 | 127 ft | 33 kts | 280° |
| 2026-05-07 21:49 | 42.00053 | -70.30837 | 128 ft | 4 kts | 271° |
| 2026-05-07 21:49 | 42.00060 | -70.30814 | 138 ft | 4 kts | 250° |
| 2026-05-07 21:50 | 42.00072 | -70.30827 | 140 ft | 4 kts | 255° |
| 2026-05-07 21:50 | 42.00079 | -70.30857 | 119 ft | 4 kts | 261° |
| 2026-05-07 21:50 | 42.00096 | -70.30900 | 111 ft | 5 kts | 265° |
| 2026-05-07 21:50 | 42.00110 | -70.30904 | 121 ft | 3 kts | 274° |
| 2026-05-07 21:51 | 42.00129 | -70.30891 | 119 ft | 4 kts | 281° |
| 2026-05-07 21:51 | 42.00156 | -70.30906 | 94 ft | 1 kts | 288° |
| 2026-05-07 21:51 | 42.00165 | -70.30907 | 82 ft | 1 kts | 296° |
| 2026-05-07 21:51 | 42.00170 | -70.30908 | 55 ft | 1 kts | 303° |
| 2026-05-07 21:52 | 42.00173 | -70.30912 | 57 ft | 0 kts | 312° |
| 2026-05-07 21:52 | 42.00180 | -70.30905 | 67 ft | 2 kts | 321° |
| 2026-05-07 21:52 | 42.00190 | -70.30904 | 62 ft | 1 kts | 328° |
| 2026-05-07 21:52 | 42.00194 | -70.30909 | 82 ft | 1 kts | 336° |
| 2026-05-07 21:53 | 42.00180 | -70.30894 | 91 ft | 10 kts | 341° |
| 2026-05-07 21:53 | 42.00145 | -70.30882 | 101 ft | 3 kts | 346° |
| 2026-05-07 21:53 | 42.00152 | -70.30885 | 112 ft | 2 kts | 356° |
| 2026-05-07 21:53 | 42.00146 | -70.30895 | 111 ft | 2 kts | 3° |
| 2026-05-07 21:54 | 42.00145 | -70.30903 | 100 ft | 1 kts | 13° |
| 2026-05-07 21:54 | 42.00130 | -70.30900 | 111 ft | 3 kts | 23° |
| 2026-05-07 21:54 | 42.00130 | -70.30904 | 127 ft | 1 kts | 323° |
| 2026-05-07 21:54 | 42.00136 | -70.30883 | 146 ft | 4 kts | 243° |
| 2026-05-07 21:55 | 42.00126 | -70.31024 | 339 ft | 42 kts | 248° |
| 2026-05-07 21:55 | 42.00231 | -70.31747 | 693 ft | 106 kts | 284° |
| 2026-05-07 21:55 | 42.00284 | -70.32863 | 1071 ft | 131 kts | 270° |
| 2026-05-07 21:55 | 42.00277 | -70.34118 | 1242 ft | 138 kts | 272° |
| 2026-05-07 21:56 | 42.00300 | -70.35441 | 1096 ft | 144 kts | 274° |
| 2026-05-07 21:56 | 42.00302 | -70.36838 | 840 ft | 152 kts | 271° |
| 2026-05-07 21:56 | 42.00317 | -70.38240 | 937 ft | 150 kts | 273° |
| 2026-05-07 21:56 | 42.00343 | -70.39626 | 930 ft | 146 kts | 272° |
| 2026-05-07 21:57 | 42.00203 | -70.40944 | 925 ft | 149 kts | 259° |
| 2026-05-07 21:57 | 41.99976 | -70.42337 | 922 ft | 151 kts | 259° |
| 2026-05-07 21:57 | 41.99754 | -70.43706 | 925 ft | 151 kts | 259° |
| 2026-05-07 21:57 | 41.99535 | -70.45056 | 930 ft | 151 kts | 259° |
| 2026-05-07 21:58 | 41.99313 | -70.46420 | 930 ft | 148 kts | 259° |
| 2026-05-07 21:58 | 41.99090 | -70.47784 | 930 ft | 150 kts | 259° |
| 2026-05-07 21:58 | 41.98864 | -70.49147 | 929 ft | 149 kts | 259° |
| 2026-05-07 21:58 | 41.98638 | -70.50512 | 932 ft | 149 kts | 259° |
| 2026-05-07 21:59 | 41.98413 | -70.51876 | 934 ft | 149 kts | 259° |
| 2026-05-07 21:59 | 41.98186 | -70.53245 | 929 ft | 151 kts | 259° |
| 2026-05-07 21:59 | 41.97953 | -70.54599 | 929 ft | 146 kts | 259° |
| 2026-05-07 21:59 | 41.97710 | -70.55926 | 914 ft | 149 kts | 259° |
| 2026-05-07 22:00 | 41.97454 | -70.57266 | 915 ft | 144 kts | 259° |
| 2026-05-07 22:00 | 41.97182 | -70.58563 | 915 ft | 144 kts | 258° |
| 2026-05-07 22:00 | 41.96926 | -70.59878 | 918 ft | 148 kts | 258° |
| 2026-05-07 22:00 | 41.96670 | -70.61225 | 921 ft | 148 kts | 259° |
| 2026-05-07 22:01 | 41.96410 | -70.62539 | 917 ft | 149 kts | 259° |
| 2026-05-07 22:01 | 41.96134 | -70.63877 | 912 ft | 151 kts | 257° |
| 2026-05-07 22:01 | 41.95858 | -70.65224 | 913 ft | 149 kts | 257° |
| 2026-05-07 22:01 | 41.95574 | -70.66563 | 914 ft | 150 kts | 257° |
| 2026-05-07 22:02 | 41.95302 | -70.67900 | 919 ft | 148 kts | 257° |
| 2026-05-07 22:02 | 41.95031 | -70.69248 | 915 ft | 153 kts | 257° |
| 2026-05-07 22:02 | 41.94746 | -70.70617 | 909 ft | 158 kts | 255° |
| 2026-05-07 22:02 | 41.94426 | -70.71953 | 913 ft | 147 kts | 255° |
| 2026-05-07 22:03 | 41.94099 | -70.73244 | 915 ft | 150 kts | 255° |
| 2026-05-07 22:03 | 41.93777 | -70.74532 | 915 ft | 145 kts | 255° |
| 2026-05-07 22:03 | 41.93454 | -70.75836 | 912 ft | 145 kts | 255° |
| 2026-05-07 22:03 | 41.93103 | -70.77133 | 896 ft | 145 kts | 254° |
| 2026-05-07 22:04 | 41.92753 | -70.78368 | 739 ft | 135 kts | 255° |
| 2026-05-07 22:04 | 41.92455 | -70.79480 | 725 ft | 119 kts | 256° |
| 2026-05-07 22:04 | 41.92173 | -70.80502 | 774 ft | 118 kts | 254° |
| 2026-05-07 22:04 | 41.91885 | -70.81537 | 755 ft | 122 kts | 254° |
| 2026-05-07 22:05 | 41.91590 | -70.82648 | 736 ft | 128 kts | 257° |
| 2026-05-07 22:05 | 41.91336 | -70.83791 | 756 ft | 132 kts | 258° |
| 2026-05-07 22:05 | 41.91070 | -70.84975 | 726 ft | 133 kts | 257° |
| 2026-05-07 22:05 | 41.90750 | -70.86187 | 707 ft | 141 kts | 256° |
| 2026-05-07 22:06 | 41.90441 | -70.87443 | 714 ft | 143 kts | 256° |
| 2026-05-07 22:06 | 41.90124 | -70.88705 | 734 ft | 142 kts | 254° |
| 2026-05-07 22:06 | 41.89828 | -70.89842 | 730 ft | 111 kts | 255° |
| 2026-05-07 22:06 | 41.89594 | -70.90579 | 678 ft | 65 kts | 251° |
| 2026-05-07 22:07 | 41.89427 | -70.90981 | 533 ft | 34 kts | 253° |
| 2026-05-07 22:07 | 41.89400 | -70.91178 | 343 ft | 12 kts | 270° |
| 2026-05-07 22:07 | 41.89391 | -70.91237 | 299 ft | 4 kts | 286° |
| 2026-05-07 22:07 | 41.89393 | -70.91342 | 278 ft | 17 kts | 274° |
| 2026-05-07 22:08 | 41.89369 | -70.91424 | 308 ft | 4 kts | 272° |
| 2026-05-07 22:08 | 41.89411 | -70.91431 | 275 ft | 3 kts | 285° |
| 2026-05-07 22:08 | 41.89427 | -70.91438 | 263 ft | 1 kts | 294° |
| 2026-05-07 22:08 | 41.89405 | -70.91427 | 259 ft | 14 kts | 288° |
| 2026-05-07 22:09 | 41.89404 | -70.91456 | 270 ft | 17 kts | 276° |
| 2026-05-07 22:09 | 41.89311 | -70.91504 | 263 ft | 20 kts | 84° |
| 2026-05-07 22:09 | 41.89367 | -70.91496 | 207 ft | 5 kts | 320° |
| 2026-05-07 22:09 | 41.89369 | -70.91491 | 196 ft | 12 kts | 328° |
| 2026-05-07 22:10 | 41.89397 | -70.91508 | 160 ft | 2 kts | 339° |
| 2026-05-07 22:10 | 41.89405 | -70.91511 | 144 ft | 1 kts | 340° |
| 2026-05-07 22:10 | 41.89410 | -70.91514 | 142 ft | 0 kts | 330° |
| 2026-05-07 22:12 | 41.89434 | -70.91523 | 222 ft | 20 kts | 340° |
| 2026-05-07 22:12 | 41.89700 | -70.91445 | 583 ft | 76 kts | 45° |
| 2026-05-07 22:12 | 41.89704 | -70.90505 | 1144 ft | 115 kts | 91° |
| 2026-05-07 22:12 | 41.89925 | -70.89347 | 1257 ft | 140 kts | 66° |
| 2026-05-07 22:13 | 41.90243 | -70.88107 | 1243 ft | 141 kts | 66° |
| 2026-05-07 22:13 | 41.90574 | -70.86897 | 1226 ft | 138 kts | 66° |
| 2026-05-07 22:13 | 41.90911 | -70.85713 | 1224 ft | 136 kts | 66° |
| 2026-05-07 22:13 | 41.91252 | -70.84526 | 1225 ft | 139 kts | 66° |
| 2026-05-07 22:14 | 41.91588 | -70.83340 | 1222 ft | 135 kts | 66° |
| 2026-05-07 22:14 | 41.91921 | -70.82142 | 1234 ft | 138 kts | 66° |
| 2026-05-07 22:14 | 41.92259 | -70.80950 | 1227 ft | 137 kts | 66° |
| 2026-05-07 22:14 | 41.92586 | -70.79754 | 1228 ft | 137 kts | 66° |
| 2026-05-07 22:15 | 41.92703 | -70.78421 | 1210 ft | 154 kts | 95° |
| 2026-05-07 22:15 | 41.92239 | -70.77103 | 1215 ft | 161 kts | 130° |
| 2026-05-07 22:15 | 41.91516 | -70.76067 | 1234 ft | 141 kts | 135° |
| 2026-05-07 22:15 | 41.90862 | -70.75115 | 1228 ft | 139 kts | 134° |
| 2026-05-07 22:16 | 41.90204 | -70.74152 | 1227 ft | 140 kts | 135° |
| 2026-05-07 22:16 | 41.89542 | -70.73190 | 1227 ft | 143 kts | 135° |
| 2026-05-07 22:16 | 41.88878 | -70.72236 | 1226 ft | 141 kts | 135° |
| 2026-05-07 22:16 | 41.88207 | -70.71275 | 1228 ft | 141 kts | 135° |
| 2026-05-07 22:17 | 41.87542 | -70.70316 | 1225 ft | 139 kts | 135° |
| 2026-05-07 22:17 | 41.86887 | -70.69371 | 1227 ft | 140 kts | 135° |
| 2026-05-07 22:17 | 41.86231 | -70.68412 | 1229 ft | 140 kts | 135° |
| 2026-05-07 22:17 | 41.85573 | -70.67437 | 1234 ft | 142 kts | 135° |
| 2026-05-07 22:18 | 41.84900 | -70.66462 | 1228 ft | 140 kts | 135° |
| 2026-05-07 22:18 | 41.83578 | -70.64575 | 1228 ft | 136 kts | 135° |
| 2026-05-07 22:18 | 41.82921 | -70.63627 | 1230 ft | 139 kts | 135° |
| 2026-05-07 22:19 | 41.82259 | -70.62664 | 1225 ft | 137 kts | 134° |
| 2026-05-07 22:19 | 41.81601 | -70.61700 | 1227 ft | 141 kts | 135° |
| 2026-05-07 22:19 | 41.80940 | -70.60727 | 1231 ft | 141 kts | 135° |
| 2026-05-07 22:19 | 41.80287 | -70.59786 | 1228 ft | 137 kts | 135° |
| 2026-05-07 22:20 | 41.79633 | -70.58845 | 1247 ft | 139 kts | 135° |
| 2026-05-07 22:20 | 41.78894 | -70.58123 | 1250 ft | 128 kts | 158° |
| 2026-05-07 22:20 | 41.78016 | -70.57647 | 1253 ft | 138 kts | 161° |
| 2026-05-07 22:20 | 41.77137 | -70.57175 | 1253 ft | 136 kts | 161° |
| 2026-05-07 22:21 | 41.76250 | -70.56713 | 1255 ft | 135 kts | 162° |
| 2026-05-07 22:21 | 41.75367 | -70.56234 | 1249 ft | 136 kts | 161° |
| 2026-05-07 22:21 | 41.74517 | -70.55759 | 1255 ft | 132 kts | 161° |
| 2026-05-07 22:21 | 41.73665 | -70.55283 | 1251 ft | 132 kts | 162° |
| 2026-05-07 22:22 | 41.72813 | -70.54802 | 1249 ft | 132 kts | 161° |
| 2026-05-07 22:22 | 41.71953 | -70.54340 | 1179 ft | 130 kts | 164° |
| 2026-05-07 22:22 | 41.71121 | -70.53929 | 1219 ft | 125 kts | 166° |
| 2026-05-07 22:22 | 41.70319 | -70.53525 | 1165 ft | 122 kts | 167° |
| 2026-05-07 22:23 | 41.69542 | -70.53050 | 1055 ft | 125 kts | 153° |
| 2026-05-07 22:23 | 41.68897 | -70.52265 | 948 ft | 124 kts | 142° |
| 2026-05-07 22:23 | 41.68295 | -70.51489 | 777 ft | 115 kts | 146° |
| 2026-05-07 22:23 | 41.67708 | -70.50900 | 622 ft | 94 kts | 159° |
| 2026-05-07 22:24 | 41.67176 | -70.50772 | 454 ft | 63 kts | 200° |
| 2026-05-07 22:24 | 41.66874 | -70.50999 | 302 ft | 38 kts | 223° |
| 2026-05-07 22:24 | 41.66724 | -70.51159 | 192 ft | 19 kts | 228° |
| 2026-05-07 22:24 | 41.66644 | -70.51245 | 140 ft | 8 kts | 234° |
| 2026-05-07 22:25 | 41.66627 | -70.51266 | 128 ft | 4 kts | 229° |
| 2026-05-07 22:25 | 41.66585 | -70.51311 | 126 ft | 10 kts | 226° |
| 2026-05-07 22:25 | 41.66505 | -70.51403 | 128 ft | 14 kts | 226° |
| 2026-05-07 22:25 | 41.66484 | -70.51534 | 127 ft | 18 kts | 262° |
| 2026-05-07 22:26 | 41.66471 | -70.51727 | 130 ft | 19 kts | 266° |
| 2026-05-07 22:26 | 41.66460 | -70.51880 | 132 ft | 16 kts | 264° |
| 2026-05-07 22:26 | 41.66449 | -70.52026 | 129 ft | 16 kts | 263° |
| 2026-05-07 22:26 | 41.66442 | -70.52124 | 130 ft | 8 kts | 264° |
| 2026-05-07 22:27 | 41.66437 | -70.52206 | 130 ft | 8 kts | 298° |
| 2026-05-07 22:27 | 41.66476 | -70.52197 | 129 ft | 6 kts | 90° |
| 2026-05-07 22:27 | 41.66466 | -70.52183 | 130 ft | 0 kts | 182° |